Terminal Aerodrome Forecast
Issued by NWS

Home | Current Version | Previous Version | Text Only | Print | Product List | Glossary On
Versions: 1 2 3 4 5 6 7 8 9 10 11 12 13 14 15 16 17 18 19 20 21 22 23 24 25 26 27
000
FTUS42 KRAH 052334
TAFRWI
TAF
KRWI 052334Z 0600/0624 33008KT 6SM -SHRA BKN012 OVC025
     FM060300 33004KT 3SM -RA BR OVC007
      TEMPO 0609/0612 4SM -RA OVC004
     FM061500 34007KT P6SM OVC015
     FM062100 30007KT P6SM OVC050
      TEMPO 0621/0624 P6SM -TSRA BKN050CB=

USA.gov is the U.S. government's official web portal to all federal, state and local government web resources and services.